sensor_id;sensor_type;location;lat;lon;timestamp;temperature;humidity
24217;DHT22;12356;49.386;8.688;2023-07-31T00:01:21;19.70;14.10
24217;DHT22;12356;49.386;8.688;2023-07-31T00:03:52;19.70;13.50
24217;DHT22;12356;49.386;8.688;2023-07-31T00:06:22;19.70;14.20
24217;DHT22;12356;49.386;8.688;2023-07-31T00:08:53;19.70;13.80
24217;DHT22;12356;49.386;8.688;2023-07-31T00:11:24;19.60;13.70
24217;DHT22;12356;49.386;8.688;2023-07-31T00:13:54;19.60;13.80
24217;DHT22;12356;49.386;8.688;2023-07-31T00:16:25;19.60;13.80
24217;DHT22;12356;49.386;8.688;2023-07-31T00:18:55;19.60;13.40
24217;DHT22;12356;49.386;8.688;2023-07-31T00:21:26;19.60;13.80
24217;DHT22;12356;49.386;8.688;2023-07-31T00:23:56;19.60;14.20
24217;DHT22;12356;49.386;8.688;2023-07-31T00:26:27;19.60;14.20
24217;DHT22;12356;49.386;8.688;2023-07-31T00:28:58;19.50;13.70
24217;DHT22;12356;49.386;8.688;2023-07-31T00:31:28;19.50;13.70
24217;DHT22;12356;49.386;8.688;2023-07-31T00:33:59;19.50;14.40
24217;DHT22;12356;49.386;8.688;2023-07-31T00:36:29;19.50;14.80
24217;DHT22;12356;49.386;8.688;2023-07-31T00:39:00;19.50;13.70
24217;DHT22;12356;49.386;8.688;2023-07-31T00:41:31;19.50;13.40
24217;DHT22;12356;49.386;8.688;2023-07-31T00:44:01;19.50;13.20
24217;DHT22;12356;49.386;8.688;2023-07-31T00:46:32;19.50;13.80
24217;DHT22;12356;49.386;8.688;2023-07-31T00:49:04;19.50;13.90
24217;DHT22;12356;49.386;8.688;2023-07-31T00:51:35;19.50;14.20
24217;DHT22;12356;49.386;8.688;2023-07-31T00:54:06;19.50;14.20
24217;DHT22;12356;49.386;8.688;2023-07-31T00:56:37;19.50;14.10
24217;DHT22;12356;49.386;8.688;2023-07-31T00:59:08;19.50;14.80
24217;DHT22;12356;49.386;8.688;2023-07-31T01:01:38;19.50;13.50
24217;DHT22;12356;49.386;8.688;2023-07-31T01:04:09;19.50;13.80
24217;DHT22;12356;49.386;8.688;2023-07-31T01:06:56;19.50;14.10
24217;DHT22;12356;49.386;8.688;2023-07-31T01:09:47;19.50;14.10
24217;DHT22;12356;49.386;8.688;2023-07-31T01:12:20;19.50;14.40
24217;DHT22;12356;49.386;8.688;2023-07-31T01:17:34;19.40;13.60
24217;DHT22;12356;49.386;8.688;2023-07-31T01:20:29;19.40;13.20
24217;DHT22;12356;49.386;8.688;2023-07-31T01:26:12;19.40;14.10
24217;DHT22;12356;49.386;8.688;2023-07-31T01:29:10;19.40;14.30
24217;DHT22;12356;49.386;8.688;2023-07-31T01:31:44;19.40;15.00
24217;DHT22;12356;49.386;8.688;2023-07-31T01:34:19;19.40;14.20
24217;DHT22;12356;49.386;8.688;2023-07-31T01:36:50;19.50;14.40
24217;DHT22;12356;49.386;8.688;2023-07-31T01:39:21;19.50;14.80
24217;DHT22;12356;49.386;8.688;2023-07-31T01:41:52;19.40;14.50
24217;DHT22;12356;49.386;8.688;2023-07-31T01:44:22;19.40;13.60
24217;DHT22;12356;49.386;8.688;2023-07-31T01:46:53;19.40;13.40
24217;DHT22;12356;49.386;8.688;2023-07-31T01:49:24;19.50;14.00
24217;DHT22;12356;49.386;8.688;2023-07-31T01:51:54;19.40;13.80
24217;DHT22;12356;49.386;8.688;2023-07-31T01:54:25;19.40;13.50
24217;DHT22;12356;49.386;8.688;2023-07-31T01:56:55;19.40;14.30
24217;DHT22;12356;49.386;8.688;2023-07-31T01:59:26;19.40;14.30
24217;DHT22;12356;49.386;8.688;2023-07-31T02:01:57;19.40;14.00
24217;DHT22;12356;49.386;8.688;2023-07-31T02:04:27;19.40;13.30
24217;DHT22;12356;49.386;8.688;2023-07-31T02:06:58;19.40;13.90
24217;DHT22;12356;49.386;8.688;2023-07-31T02:09:28;19.40;14.60
24217;DHT22;12356;49.386;8.688;2023-07-31T02:11:59;19.40;14.30
24217;DHT22;12356;49.386;8.688;2023-07-31T02:14:29;19.40;13.80
24217;DHT22;12356;49.386;8.688;2023-07-31T02:17:00;19.40;13.40
24217;DHT22;12356;49.386;8.688;2023-07-31T02:19:30;19.40;12.80
24217;DHT22;12356;49.386;8.688;2023-07-31T02:22:01;19.40;13.00
24217;DHT22;12356;49.386;8.688;2023-07-31T02:24:32;19.40;14.10
24217;DHT22;12356;49.386;8.688;2023-07-31T02:27:02;19.40;12.70
24217;DHT22;12356;49.386;8.688;2023-07-31T02:29:33;19.40;13.50
24217;DHT22;12356;49.386;8.688;2023-07-31T02:32:03;19.50;13.50
24217;DHT22;12356;49.386;8.688;2023-07-31T02:34:34;19.50;13.20
24217;DHT22;12356;49.386;8.688;2023-07-31T02:37:05;19.50;14.10
24217;DHT22;12356;49.386;8.688;2023-07-31T02:39:35;19.40;14.30
24217;DHT22;12356;49.386;8.688;2023-07-31T02:42:06;19.40;14.10
24217;DHT22;12356;49.386;8.688;2023-07-31T02:44:37;19.40;14.50
24217;DHT22;12356;49.386;8.688;2023-07-31T02:47:07;19.30;14.20
24217;DHT22;12356;49.386;8.688;2023-07-31T02:49:38;19.30;13.90
24217;DHT22;12356;49.386;8.688;2023-07-31T02:52:08;19.30;14.40
24217;DHT22;12356;49.386;8.688;2023-07-31T02:54:39;19.40;14.70
24217;DHT22;12356;49.386;8.688;2023-07-31T02:57:09;19.30;15.60
24217;DHT22;12356;49.386;8.688;2023-07-31T02:59:40;19.40;15.50
24217;DHT22;12356;49.386;8.688;2023-07-31T03:02:10;19.30;15.30
24217;DHT22;12356;49.386;8.688;2023-07-31T03:04:42;19.30;14.60
24217;DHT22;12356;49.386;8.688;2023-07-31T03:07:13;19.30;15.40
24217;DHT22;12356;49.386;8.688;2023-07-31T03:09:43;19.30;15.10
24217;DHT22;12356;49.386;8.688;2023-07-31T03:12:14;19.30;15.60
24217;DHT22;12356;49.386;8.688;2023-07-31T03:14:44;19.30;16.10
24217;DHT22;12356;49.386;8.688;2023-07-31T03:17:15;19.30;15.80
24217;DHT22;12356;49.386;8.688;2023-07-31T03:19:45;19.20;15.20
24217;DHT22;12356;49.386;8.688;2023-07-31T03:22:16;19.30;15.90
24217;DHT22;12356;49.386;8.688;2023-07-31T03:24:47;19.20;15.60
24217;DHT22;12356;49.386;8.688;2023-07-31T03:27:18;19.20;15.80
24217;DHT22;12356;49.386;8.688;2023-07-31T03:29:49;19.20;16.20
24217;DHT22;12356;49.386;8.688;2023-07-31T03:32:21;19.20;16.90
24217;DHT22;12356;49.386;8.688;2023-07-31T03:34:52;19.20;16.70
24217;DHT22;12356;49.386;8.688;2023-07-31T03:37:22;19.20;16.30
24217;DHT22;12356;49.386;8.688;2023-07-31T03:39:53;19.10;15.90
24217;DHT22;12356;49.386;8.688;2023-07-31T03:42:23;19.10;16.10
24217;DHT22;12356;49.386;8.688;2023-07-31T03:44:54;19.10;16.40
24217;DHT22;12356;49.386;8.688;2023-07-31T03:47:24;19.10;16.50
24217;DHT22;12356;49.386;8.688;2023-07-31T03:49:55;19.10;16.40
24217;DHT22;12356;49.386;8.688;2023-07-31T03:52:25;19.10;16.10
24217;DHT22;12356;49.386;8.688;2023-07-31T03:54:56;19.10;15.70
24217;DHT22;12356;49.386;8.688;2023-07-31T03:57:27;19.10;15.90
24217;DHT22;12356;49.386;8.688;2023-07-31T03:59:57;19.10;15.50
24217;DHT22;12356;49.386;8.688;2023-07-31T04:02:28;19.00;15.90
24217;DHT22;12356;49.386;8.688;2023-07-31T04:04:59;19.10;16.90
24217;DHT22;12356;49.386;8.688;2023-07-31T04:07:29;19.00;16.60
24217;DHT22;12356;49.386;8.688;2023-07-31T04:10:00;19.00;16.50
24217;DHT22;12356;49.386;8.688;2023-07-31T04:12:30;19.00;16.60
24217;DHT22;12356;49.386;8.688;2023-07-31T04:15:01;19.00;16.00
24217;DHT22;12356;49.386;8.688;2023-07-31T04:17:31;19.00;16.60
24217;DHT22;12356;49.386;8.688;2023-07-31T04:20:02;19.00;15.70
24217;DHT22;12356;49.386;8.688;2023-07-31T04:22:32;19.00;16.20
24217;DHT22;12356;49.386;8.688;2023-07-31T04:25:03;19.00;16.40
24217;DHT22;12356;49.386;8.688;2023-07-31T04:27:34;19.00;16.00
24217;DHT22;12356;49.386;8.688;2023-07-31T04:30:05;19.00;16.00
24217;DHT22;12356;49.386;8.688;2023-07-31T04:32:36;18.90;15.80
24217;DHT22;12356;49.386;8.688;2023-07-31T04:35:07;19.00;16.40
24217;DHT22;12356;49.386;8.688;2023-07-31T04:37:37;19.00;16.40
24217;DHT22;12356;49.386;8.688;2023-07-31T04:40:09;18.90;16.30
24217;DHT22;12356;49.386;8.688;2023-07-31T04:42:39;18.90;16.50
24217;DHT22;12356;49.386;8.688;2023-07-31T04:45:10;18.90;16.80
24217;DHT22;12356;49.386;8.688;2023-07-31T04:47:40;18.90;17.00
24217;DHT22;12356;49.386;8.688;2023-07-31T04:50:11;18.90;17.50
24217;DHT22;12356;49.386;8.688;2023-07-31T04:52:42;18.90;17.30
24217;DHT22;12356;49.386;8.688;2023-07-31T04:55:12;18.90;17.30
24217;DHT22;12356;49.386;8.688;2023-07-31T04:57:43;18.90;17.50
24217;DHT22;12356;49.386;8.688;2023-07-31T05:00:13;18.90;17.70
24217;DHT22;12356;49.386;8.688;2023-07-31T05:02:44;19.00;18.00
24217;DHT22;12356;49.386;8.688;2023-07-31T05:05:14;19.00;17.80
24217;DHT22;12356;49.386;8.688;2023-07-31T05:07:45;18.90;17.50
24217;DHT22;12356;49.386;8.688;2023-07-31T05:10:15;18.90;17.40
24217;DHT22;12356;49.386;8.688;2023-07-31T05:12:46;19.00;18.30
24217;DHT22;12356;49.386;8.688;2023-07-31T05:15:16;18.90;18.10
24217;DHT22;12356;49.386;8.688;2023-07-31T05:17:47;18.90;18.20
24217;DHT22;12356;49.386;8.688;2023-07-31T05:20:18;18.90;18.20
24217;DHT22;12356;49.386;8.688;2023-07-31T05:22:48;19.00;19.30
24217;DHT22;12356;49.386;8.688;2023-07-31T05:25:19;19.00;19.90
24217;DHT22;12356;49.386;8.688;2023-07-31T05:27:49;18.90;19.20
24217;DHT22;12356;49.386;8.688;2023-07-31T05:30:20;18.90;17.70
24217;DHT22;12356;49.386;8.688;2023-07-31T05:32:51;18.90;18.00
24217;DHT22;12356;49.386;8.688;2023-07-31T05:35:22;18.90;19.20
24217;DHT22;12356;49.386;8.688;2023-07-31T05:37:52;18.90;15.70
24217;DHT22;12356;49.386;8.688;2023-07-31T05:40:23;18.90;16.20
24217;DHT22;12356;49.386;8.688;2023-07-31T05:42:54;18.90;16.80
24217;DHT22;12356;49.386;8.688;2023-07-31T05:45:25;18.90;17.60
24217;DHT22;12356;49.386;8.688;2023-07-31T05:47:56;18.90;18.00
24217;DHT22;12356;49.386;8.688;2023-07-31T05:50:26;18.90;17.90
24217;DHT22;12356;49.386;8.688;2023-07-31T05:52:57;18.90;17.50
24217;DHT22;12356;49.386;8.688;2023-07-31T05:55:27;19.00;18.20
24217;DHT22;12356;49.386;8.688;2023-07-31T05:57:58;18.90;16.80
24217;DHT22;12356;49.386;8.688;2023-07-31T06:00:28;18.90;16.90
24217;DHT22;12356;49.386;8.688;2023-07-31T06:02:59;18.90;17.80
24217;DHT22;12356;49.386;8.688;2023-07-31T06:05:29;19.00;18.00
24217;DHT22;12356;49.386;8.688;2023-07-31T06:08:00;19.00;18.10
24217;DHT22;12356;49.386;8.688;2023-07-31T06:10:31;19.00;17.90
24217;DHT22;12356;49.386;8.688;2023-07-31T06:13:02;19.00;17.40
24217;DHT22;12356;49.386;8.688;2023-07-31T06:15:33;19.00;17.20
24217;DHT22;12356;49.386;8.688;2023-07-31T06:18:04;19.00;17.20
24217;DHT22;12356;49.386;8.688;2023-07-31T06:20:37;19.00;17.20
24217;DHT22;12356;49.386;8.688;2023-07-31T06:23:10;19.00;18.00
24217;DHT22;12356;49.386;8.688;2023-07-31T06:25:41;19.00;18.70
24217;DHT22;12356;49.386;8.688;2023-07-31T06:28:11;19.00;18.90
24217;DHT22;12356;49.386;8.688;2023-07-31T06:30:42;19.00;19.20
24217;DHT22;12356;49.386;8.688;2023-07-31T06:33:13;19.00;18.80
24217;DHT22;12356;49.386;8.688;2023-07-31T06:35:43;19.10;18.40
24217;DHT22;12356;49.386;8.688;2023-07-31T06:38:14;19.10;19.20
24217;DHT22;12356;49.386;8.688;2023-07-31T06:40:44;19.10;18.50
24217;DHT22;12356;49.386;8.688;2023-07-31T06:43:15;19.10;18.20
24217;DHT22;12356;49.386;8.688;2023-07-31T06:45:45;19.00;18.00
24217;DHT22;12356;49.386;8.688;2023-07-31T06:48:16;19.10;18.80
24217;DHT22;12356;49.386;8.688;2023-07-31T06:50:47;19.10;19.40
24217;DHT22;12356;49.386;8.688;2023-07-31T06:53:17;19.10;19.40
24217;DHT22;12356;49.386;8.688;2023-07-31T06:55:48;19.10;19.40
24217;DHT22;12356;49.386;8.688;2023-07-31T06:58:18;19.10;19.40
24217;DHT22;12356;49.386;8.688;2023-07-31T07:00:49;19.20;20.30
24217;DHT22;12356;49.386;8.688;2023-07-31T07:03:21;19.20;18.70
24217;DHT22;12356;49.386;8.688;2023-07-31T07:05:51;19.20;20.00
24217;DHT22;12356;49.386;8.688;2023-07-31T07:08:22;19.20;19.50
24217;DHT22;12356;49.386;8.688;2023-07-31T07:10:52;19.30;18.90
24217;DHT22;12356;49.386;8.688;2023-07-31T07:13:23;19.30;17.40
24217;DHT22;12356;49.386;8.688;2023-07-31T07:15:53;19.30;17.90
24217;DHT22;12356;49.386;8.688;2023-07-31T07:18:24;19.30;18.00
24217;DHT22;12356;49.386;8.688;2023-07-31T07:20:54;19.30;17.90
24217;DHT22;12356;49.386;8.688;2023-07-31T07:23:27;19.20;17.40
24217;DHT22;12356;49.386;8.688;2023-07-31T07:25:57;19.30;17.50
24217;DHT22;12356;49.386;8.688;2023-07-31T07:28:28;19.30;17.70
24217;DHT22;12356;49.386;8.688;2023-07-31T07:30:59;19.40;17.50
24217;DHT22;12356;49.386;8.688;2023-07-31T07:33:29;19.30;17.60
24217;DHT22;12356;49.386;8.688;2023-07-31T07:36:01;19.40;18.20
24217;DHT22;12356;49.386;8.688;2023-07-31T07:38:32;19.40;16.80
24217;DHT22;12356;49.386;8.688;2023-07-31T07:41:03;19.40;16.80
24217;DHT22;12356;49.386;8.688;2023-07-31T07:43:33;19.40;18.20
24217;DHT22;12356;49.386;8.688;2023-07-31T07:46:04;19.40;17.70
24217;DHT22;12356;49.386;8.688;2023-07-31T07:48:34;19.50;17.70
24217;DHT22;12356;49.386;8.688;2023-07-31T07:51:05;19.50;18.00
24217;DHT22;12356;49.386;8.688;2023-07-31T07:53:35;19.50;16.90
24217;DHT22;12356;49.386;8.688;2023-07-31T07:56:06;19.50;16.00
24217;DHT22;12356;49.386;8.688;2023-07-31T07:58:36;19.50;16.20
24217;DHT22;12356;49.386;8.688;2023-07-31T08:01:07;19.50;17.10
24217;DHT22;12356;49.386;8.688;2023-07-31T08:03:38;19.50;17.60
24217;DHT22;12356;49.386;8.688;2023-07-31T08:06:09;19.60;16.70
24217;DHT22;12356;49.386;8.688;2023-07-31T08:08:39;19.60;17.00
24217;DHT22;12356;49.386;8.688;2023-07-31T08:11:10;19.60;17.20
24217;DHT22;12356;49.386;8.688;2023-07-31T08:13:41;19.60;16.80
24217;DHT22;12356;49.386;8.688;2023-07-31T08:16:11;19.70;17.20
24217;DHT22;12356;49.386;8.688;2023-07-31T08:18:42;19.70;17.20
24217;DHT22;12356;49.386;8.688;2023-07-31T08:21:15;19.70;17.70
24217;DHT22;12356;49.386;8.688;2023-07-31T08:23:46;19.80;17.60
24217;DHT22;12356;49.386;8.688;2023-07-31T08:26:17;19.80;15.80
24217;DHT22;12356;49.386;8.688;2023-07-31T08:28:48;19.80;15.40
24217;DHT22;12356;49.386;8.688;2023-07-31T08:31:19;19.80;16.20
24217;DHT22;12356;49.386;8.688;2023-07-31T08:33:49;19.90;16.90
24217;DHT22;12356;49.386;8.688;2023-07-31T08:36:20;19.90;16.30
24217;DHT22;12356;49.386;8.688;2023-07-31T08:38:50;20.00;17.10
24217;DHT22;12356;49.386;8.688;2023-07-31T08:41:21;20.10;14.70
24217;DHT22;12356;49.386;8.688;2023-07-31T08:43:52;20.20;14.90
24217;DHT22;12356;49.386;8.688;2023-07-31T08:46:24;20.20;15.20
24217;DHT22;12356;49.386;8.688;2023-07-31T08:48:55;20.30;14.30
24217;DHT22;12356;49.386;8.688;2023-07-31T08:51:26;20.30;14.10
24217;DHT22;12356;49.386;8.688;2023-07-31T08:53:56;20.40;15.30
24217;DHT22;12356;49.386;8.688;2023-07-31T08:56:28;20.40;15.50
24217;DHT22;12356;49.386;8.688;2023-07-31T08:59:01;20.50;15.30
24217;DHT22;12356;49.386;8.688;2023-07-31T09:01:36;20.50;15.00
24217;DHT22;12356;49.386;8.688;2023-07-31T09:04:09;20.50;13.50
24217;DHT22;12356;49.386;8.688;2023-07-31T09:06:41;20.50;13.70
24217;DHT22;12356;49.386;8.688;2023-07-31T09:09:12;20.50;13.10
24217;DHT22;12356;49.386;8.688;2023-07-31T09:11:43;20.50;11.70
24217;DHT22;12356;49.386;8.688;2023-07-31T09:14:14;20.50;11.80
24217;DHT22;12356;49.386;8.688;2023-07-31T09:16:53;20.50;12.70
24217;DHT22;12356;49.386;8.688;2023-07-31T09:19:34;20.50;11.50
24217;DHT22;12356;49.386;8.688;2023-07-31T09:22:07;20.50;12.70
24217;DHT22;12356;49.386;8.688;2023-07-31T09:24:37;20.50;12.90
24217;DHT22;12356;49.386;8.688;2023-07-31T09:27:08;20.60;12.80
24217;DHT22;12356;49.386;8.688;2023-07-31T09:29:39;20.70;12.40
24217;DHT22;12356;49.386;8.688;2023-07-31T09:32:16;20.80;11.60
24217;DHT22;12356;49.386;8.688;2023-07-31T09:34:47;20.80;11.20
24217;DHT22;12356;49.386;8.688;2023-07-31T09:37:18;20.80;12.50
24217;DHT22;12356;49.386;8.688;2023-07-31T09:39:49;20.90;12.20
24217;DHT22;12356;49.386;8.688;2023-07-31T09:42:26;21.00;12.40
24217;DHT22;12356;49.386;8.688;2023-07-31T09:45:07;21.10;11.10
24217;DHT22;12356;49.386;8.688;2023-07-31T09:47:38;21.20;10.60
24217;DHT22;12356;49.386;8.688;2023-07-31T09:50:09;21.30;11.20
24217;DHT22;12356;49.386;8.688;2023-07-31T09:52:40;21.20;9.10
24217;DHT22;12356;49.386;8.688;2023-07-31T09:55:10;21.10;9.80
24217;DHT22;12356;49.386;8.688;2023-07-31T09:57:44;21.10;10.20
24217;DHT22;12356;49.386;8.688;2023-07-31T10:00:17;21.10;10.30
24217;DHT22;12356;49.386;8.688;2023-07-31T10:02:49;21.10;11.00
24217;DHT22;12356;49.386;8.688;2023-07-31T10:05:21;21.10;10.30
24217;DHT22;12356;49.386;8.688;2023-07-31T10:07:54;21.00;8.80
24217;DHT22;12356;49.386;8.688;2023-07-31T10:10:26;21.10;9.60
24217;DHT22;12356;49.386;8.688;2023-07-31T10:12:59;21.00;10.70
24217;DHT22;12356;49.386;8.688;2023-07-31T10:15:30;21.00;11.40
24217;DHT22;12356;49.386;8.688;2023-07-31T10:18:02;21.10;12.00
24217;DHT22;12356;49.386;8.688;2023-07-31T10:20:33;21.10;12.00
24217;DHT22;12356;49.386;8.688;2023-07-31T10:23:04;21.10;11.00
24217;DHT22;12356;49.386;8.688;2023-07-31T10:25:37;21.10;10.00
24217;DHT22;12356;49.386;8.688;2023-07-31T10:28:09;21.10;9.50
24217;DHT22;12356;49.386;8.688;2023-07-31T10:30:40;21.10;9.70
24217;DHT22;12356;49.386;8.688;2023-07-31T10:33:11;21.10;10.40
24217;DHT22;12356;49.386;8.688;2023-07-31T10:35:42;21.10;10.00
24217;DHT22;12356;49.386;8.688;2023-07-31T10:38:13;21.10;10.00
24217;DHT22;12356;49.386;8.688;2023-07-31T10:40:43;21.20;10.50
24217;DHT22;12356;49.386;8.688;2023-07-31T10:43:24;21.20;9.40
24217;DHT22;12356;49.386;8.688;2023-07-31T10:45:57;21.20;9.30
24217;DHT22;12356;49.386;8.688;2023-07-31T10:48:33;21.20;10.50
24217;DHT22;12356;49.386;8.688;2023-07-31T10:51:09;21.30;9.30
24217;DHT22;12356;49.386;8.688;2023-07-31T10:53:42;21.30;10.10
24217;DHT22;12356;49.386;8.688;2023-07-31T10:56:13;21.30;12.20
24217;DHT22;12356;49.386;8.688;2023-07-31T10:59:01;21.30;8.30
24217;DHT22;12356;49.386;8.688;2023-07-31T11:01:52;21.40;9.30
24217;DHT22;12356;49.386;8.688;2023-07-31T11:04:24;21.50;8.60
24217;DHT22;12356;49.386;8.688;2023-07-31T11:06:57;21.60;8.50
24217;DHT22;12356;49.386;8.688;2023-07-31T11:09:32;21.60;8.00
24217;DHT22;12356;49.386;8.688;2023-07-31T11:12:03;21.60;8.60
24217;DHT22;12356;49.386;8.688;2023-07-31T11:14:34;21.50;8.40
24217;DHT22;12356;49.386;8.688;2023-07-31T11:17:07;21.50;8.30
24217;DHT22;12356;49.386;8.688;2023-07-31T11:19:38;21.50;8.40
24217;DHT22;12356;49.386;8.688;2023-07-31T11:22:09;21.40;8.40
24217;DHT22;12356;49.386;8.688;2023-07-31T11:24:39;21.50;9.00
24217;DHT22;12356;49.386;8.688;2023-07-31T11:27:10;21.50;9.20
24217;DHT22;12356;49.386;8.688;2023-07-31T11:29:40;21.60;8.50
24217;DHT22;12356;49.386;8.688;2023-07-31T11:32:16;21.70;9.00
24217;DHT22;12356;49.386;8.688;2023-07-31T11:34:55;21.70;8.40
24217;DHT22;12356;49.386;8.688;2023-07-31T11:37:39;21.80;8.70
24217;DHT22;12356;49.386;8.688;2023-07-31T11:40:10;21.80;8.10
24217;DHT22;12356;49.386;8.688;2023-07-31T11:42:41;21.90;8.70
24217;DHT22;12356;49.386;8.688;2023-07-31T11:45:11;21.90;6.70
24217;DHT22;12356;49.386;8.688;2023-07-31T11:47:42;21.80;7.90
24217;DHT22;12356;49.386;8.688;2023-07-31T11:50:12;21.80;7.80
24217;DHT22;12356;49.386;8.688;2023-07-31T11:52:44;21.80;7.10
24217;DHT22;12356;49.386;8.688;2023-07-31T11:55:17;21.70;6.80
24217;DHT22;12356;49.386;8.688;2023-07-31T11:57:47;21.70;7.40
24217;DHT22;12356;49.386;8.688;2023-07-31T12:00:18;21.70;7.70
24217;DHT22;12356;49.386;8.688;2023-07-31T12:02:50;21.80;7.50
24217;DHT22;12356;49.386;8.688;2023-07-31T12:05:22;21.80;7.50
24217;DHT22;12356;49.386;8.688;2023-07-31T12:07:54;21.80;8.60
24217;DHT22;12356;49.386;8.688;2023-07-31T12:10:28;21.80;7.60
24217;DHT22;12356;49.386;8.688;2023-07-31T12:13:01;21.80;8.60
24217;DHT22;12356;49.386;8.688;2023-07-31T12:18:08;21.80;8.80
24217;DHT22;12356;49.386;8.688;2023-07-31T12:20:49;21.80;8.70
24217;DHT22;12356;49.386;8.688;2023-07-31T12:23:28;21.80;8.60
24217;DHT22;12356;49.386;8.688;2023-07-31T12:26:09;21.80;8.60
24217;DHT22;12356;49.386;8.688;2023-07-31T12:28:45;21.80;9.50
24217;DHT22;12356;49.386;8.688;2023-07-31T12:31:20;21.80;9.90
24217;DHT22;12356;49.386;8.688;2023-07-31T12:33:51;21.70;8.80
24217;DHT22;12356;49.386;8.688;2023-07-31T12:36:23;21.80;9.50
24217;DHT22;12356;49.386;8.688;2023-07-31T12:38:54;21.90;8.70
24217;DHT22;12356;49.386;8.688;2023-07-31T12:41:27;21.90;8.80
24217;DHT22;12356;49.386;8.688;2023-07-31T12:43:57;22.00;8.80
24217;DHT22;12356;49.386;8.688;2023-07-31T12:46:28;22.10;9.20
24217;DHT22;12356;49.386;8.688;2023-07-31T12:48:59;22.10;9.10
24217;DHT22;12356;49.386;8.688;2023-07-31T12:51:29;22.10;8.90
24217;DHT22;12356;49.386;8.688;2023-07-31T12:54:00;22.10;8.90
24217;DHT22;12356;49.386;8.688;2023-07-31T12:56:30;22.10;8.70
24217;DHT22;12356;49.386;8.688;2023-07-31T12:59:01;22.10;8.20
24217;DHT22;12356;49.386;8.688;2023-07-31T13:01:31;22.10;7.20
24217;DHT22;12356;49.386;8.688;2023-07-31T13:04:02;22.10;5.90
24217;DHT22;12356;49.386;8.688;2023-07-31T13:06:33;22.10;5.70
24217;DHT22;12356;49.386;8.688;2023-07-31T13:09:03;22.10;7.60
24217;DHT22;12356;49.386;8.688;2023-07-31T13:11:34;22.10;6.60
24217;DHT22;12356;49.386;8.688;2023-07-31T13:14:05;22.10;8.00
24217;DHT22;12356;49.386;8.688;2023-07-31T13:16:35;22.10;8.20
24217;DHT22;12356;49.386;8.688;2023-07-31T13:19:06;22.10;8.90
24217;DHT22;12356;49.386;8.688;2023-07-31T13:21:36;22.10;7.70
24217;DHT22;12356;49.386;8.688;2023-07-31T13:24:07;22.10;7.40
24217;DHT22;12356;49.386;8.688;2023-07-31T13:26:37;22.10;7.80
24217;DHT22;12356;49.386;8.688;2023-07-31T13:29:08;22.10;7.50
24217;DHT22;12356;49.386;8.688;2023-07-31T13:31:38;22.00;8.80
24217;DHT22;12356;49.386;8.688;2023-07-31T13:34:09;22.00;8.80
24217;DHT22;12356;49.386;8.688;2023-07-31T13:36:39;22.00;9.00
24217;DHT22;12356;49.386;8.688;2023-07-31T13:39:10;22.00;8.80
24217;DHT22;12356;49.386;8.688;2023-07-31T13:41:41;22.10;8.30
24217;DHT22;12356;49.386;8.688;2023-07-31T13:44:11;22.20;9.40
24217;DHT22;12356;49.386;8.688;2023-07-31T13:46:42;22.30;9.10
24217;DHT22;12356;49.386;8.688;2023-07-31T13:49:12;22.40;9.10
24217;DHT22;12356;49.386;8.688;2023-07-31T13:51:43;22.40;9.10
24217;DHT22;12356;49.386;8.688;2023-07-31T13:54:14;22.50;9.20
24217;DHT22;12356;49.386;8.688;2023-07-31T13:56:46;22.50;9.20
24217;DHT22;12356;49.386;8.688;2023-07-31T13:59:16;22.50;9.20
24217;DHT22;12356;49.386;8.688;2023-07-31T14:01:47;22.50;9.20
24217;DHT22;12356;49.386;8.688;2023-07-31T14:04:18;22.50;7.30
24217;DHT22;12356;49.386;8.688;2023-07-31T14:06:48;22.50;6.70
24217;DHT22;12356;49.386;8.688;2023-07-31T14:09:20;22.50;6.80
24217;DHT22;12356;49.386;8.688;2023-07-31T14:11:51;22.40;7.00
24217;DHT22;12356;49.386;8.688;2023-07-31T14:14:21;22.40;7.40
24217;DHT22;12356;49.386;8.688;2023-07-31T14:16:53;22.30;6.80
24217;DHT22;12356;49.386;8.688;2023-07-31T14:19:24;22.30;7.50
24217;DHT22;12356;49.386;8.688;2023-07-31T14:21:55;22.30;6.80
24217;DHT22;12356;49.386;8.688;2023-07-31T14:24:25;22.30;7.60
24217;DHT22;12356;49.386;8.688;2023-07-31T14:26:56;22.30;6.90
24217;DHT22;12356;49.386;8.688;2023-07-31T14:29:26;22.30;8.00
24217;DHT22;12356;49.386;8.688;2023-07-31T14:31:57;22.20;8.40
24217;DHT22;12356;49.386;8.688;2023-07-31T14:34:28;22.20;7.70
24217;DHT22;12356;49.386;8.688;2023-07-31T14:36:58;22.20;8.50
24217;DHT22;12356;49.386;8.688;2023-07-31T14:39:29;22.20;8.50
24217;DHT22;12356;49.386;8.688;2023-07-31T14:41:59;22.20;9.50
24217;DHT22;12356;49.386;8.688;2023-07-31T14:44:30;22.20;9.00
24217;DHT22;12356;49.386;8.688;2023-07-31T14:47:00;22.20;9.00
24217;DHT22;12356;49.386;8.688;2023-07-31T14:49:31;22.20;9.00
24217;DHT22;12356;49.386;8.688;2023-07-31T14:52:01;22.20;8.90
24217;DHT22;12356;49.386;8.688;2023-07-31T14:54:32;22.20;9.00
24217;DHT22;12356;49.386;8.688;2023-07-31T14:57:03;22.10;8.90
24217;DHT22;12356;49.386;8.688;2023-07-31T14:59:33;22.20;9.50
24217;DHT22;12356;49.386;8.688;2023-07-31T15:02:04;22.20;9.00
24217;DHT22;12356;49.386;8.688;2023-07-31T15:04:35;22.20;9.00
24217;DHT22;12356;49.386;8.688;2023-07-31T15:07:06;22.20;9.00
24217;DHT22;12356;49.386;8.688;2023-07-31T15:09:37;22.30;9.50
24217;DHT22;12356;49.386;8.688;2023-07-31T15:12:07;22.40;9.10
24217;DHT22;12356;49.386;8.688;2023-07-31T15:14:38;22.40;8.30
24217;DHT22;12356;49.386;8.688;2023-07-31T15:17:09;22.50;8.10
24217;DHT22;12356;49.386;8.688;2023-07-31T15:19:39;22.50;9.20
24217;DHT22;12356;49.386;8.688;2023-07-31T15:22:10;22.50;8.80
24217;DHT22;12356;49.386;8.688;2023-07-31T15:24:40;22.60;7.30
24217;DHT22;12356;49.386;8.688;2023-07-31T15:27:11;22.60;7.30
24217;DHT22;12356;49.386;8.688;2023-07-31T15:29:41;22.60;6.90
24217;DHT22;12356;49.386;8.688;2023-07-31T15:32:12;22.60;8.60
24217;DHT22;12356;49.386;8.688;2023-07-31T15:34:42;22.50;7.40
24217;DHT22;12356;49.386;8.688;2023-07-31T15:37:13;22.50;6.40
24217;DHT22;12356;49.386;8.688;2023-07-31T15:39:43;22.50;7.00
24217;DHT22;12356;49.386;8.688;2023-07-31T15:42:14;22.50;7.90
24217;DHT22;12356;49.386;8.688;2023-07-31T15:44:45;22.50;6.10
24217;DHT22;12356;49.386;8.688;2023-07-31T15:47:16;22.50;7.10
24217;DHT22;12356;49.386;8.688;2023-07-31T15:49:46;22.40;8.40
24217;DHT22;12356;49.386;8.688;2023-07-31T15:52:17;22.40;8.50
24217;DHT22;12356;49.386;8.688;2023-07-31T15:54:48;22.40;7.80
24217;DHT22;12356;49.386;8.688;2023-07-31T15:57:18;22.40;8.00
24217;DHT22;12356;49.386;8.688;2023-07-31T15:59:49;22.40;6.70
24217;DHT22;12356;49.386;8.688;2023-07-31T16:02:19;22.40;7.30
24217;DHT22;12356;49.386;8.688;2023-07-31T16:04:50;22.40;7.90
24217;DHT22;12356;49.386;8.688;2023-07-31T16:07:20;22.30;9.00
24217;DHT22;12356;49.386;8.688;2023-07-31T16:09:51;22.30;9.50